sensor_id;sensor_type;location;lat;lon;timestamp;pressure;altitude;pressure_sealevel;temperature;humidity
79376;BME280;68846;53.150;18.136;2023-11-21T00:02:14;100515.56;;;1.68;84.27
79376;BME280;68846;53.150;18.136;2023-11-21T00:04:42;100520.48;;;1.69;84.32
79376;BME280;68846;53.150;18.136;2023-11-21T00:07:10;100522.85;;;1.68;84.50
79376;BME280;68846;53.150;18.136;2023-11-21T00:09:38;100525.12;;;1.68;84.41
79376;BME280;68846;53.150;18.136;2023-11-21T00:12:06;100527.98;;;1.66;84.30
79376;BME280;68846;53.150;18.136;2023-11-21T00:14:37;100534.22;;;1.62;84.39
79376;BME280;68846;53.150;18.136;2023-11-21T00:17:06;100537.74;;;1.59;84.65
79376;BME280;68846;53.150;18.136;2023-11-21T00:19:34;100541.88;;;1.58;84.51
79376;BME280;68846;53.150;18.136;2023-11-21T00:22:02;100548.33;;;1.59;84.46
79376;BME280;68846;53.150;18.136;2023-11-21T00:24:30;100546.75;;;1.58;84.43
79376;BME280;68846;53.150;18.136;2023-11-21T00:26:59;100542.91;;;1.57;84.65
79376;BME280;68846;53.150;18.136;2023-11-21T00:29:27;100546.31;;;1.56;84.48
79376;BME280;68846;53.150;18.136;2023-11-21T00:31:55;100546.65;;;1.56;84.30
79376;BME280;68846;53.150;18.136;2023-11-21T00:34:23;100552.95;;;1.61;84.63
79376;BME280;68846;53.150;18.136;2023-11-21T00:37:17;100550.54;;;1.62;84.28
79376;BME280;68846;53.150;18.136;2023-11-21T00:39:45;100558.77;;;1.55;84.32
79376;BME280;68846;53.150;18.136;2023-11-21T00:42:12;100559.68;;;1.53;84.30
79376;BME280;68846;53.150;18.136;2023-11-21T00:44:40;100563.98;;;1.48;84.26
79376;BME280;68846;53.150;18.136;2023-11-21T00:47:08;100564.75;;;1.43;84.37
79376;BME280;68846;53.150;18.136;2023-11-21T00:49:36;100571.66;;;1.38;84.33
79376;BME280;68846;53.150;18.136;2023-11-21T00:52:04;100577.55;;;1.34;84.57
79376;BME280;68846;53.150;18.136;2023-11-21T00:54:33;100584.14;;;1.30;84.32
79376;BME280;68846;53.150;18.136;2023-11-21T00:57:01;100578.70;;;1.28;84.65
79376;BME280;68846;53.150;18.136;2023-11-21T00:59:29;100582.77;;;1.30;84.53
79376;BME280;68846;53.150;18.136;2023-11-21T01:01:58;100580.86;;;1.34;84.50
79376;BME280;68846;53.150;18.136;2023-11-21T01:04:28;100580.55;;;1.39;84.51
79376;BME280;68846;53.150;18.136;2023-11-21T01:06:56;100582.65;;;1.43;84.31
79376;BME280;68846;53.150;18.136;2023-11-21T01:09:24;100582.85;;;1.48;84.36
79376;BME280;68846;53.150;18.136;2023-11-21T01:11:53;100585.71;;;1.49;84.26
79376;BME280;68846;53.150;18.136;2023-11-21T01:14:21;100587.16;;;1.47;84.07
79376;BME280;68846;53.150;18.136;2023-11-21T01:16:49;100595.17;;;1.43;84.35
79376;BME280;68846;53.150;18.136;2023-11-21T01:19:19;100602.65;;;1.40;84.37
79376;BME280;68846;53.150;18.136;2023-11-21T01:21:47;100602.05;;;1.38;84.56
79376;BME280;68846;53.150;18.136;2023-11-21T01:24:14;100600.75;;;1.37;84.57
79376;BME280;68846;53.150;18.136;2023-11-21T01:26:42;100599.16;;;1.36;84.55
79376;BME280;68846;53.150;18.136;2023-11-21T01:29:11;100605.91;;;1.36;84.49
79376;BME280;68846;53.150;18.136;2023-11-21T01:31:38;100612.48;;;1.35;84.54
79376;BME280;68846;53.150;18.136;2023-11-21T01:34:07;100613.78;;;1.33;84.42
79376;BME280;68846;53.150;18.136;2023-11-21T01:36:35;100616.61;;;1.34;84.45
79376;BME280;68846;53.150;18.136;2023-11-21T01:39:04;100616.20;;;1.33;84.30
79376;BME280;68846;53.150;18.136;2023-11-21T01:41:35;100614.27;;;1.32;84.35
79376;BME280;68846;53.150;18.136;2023-11-21T01:44:04;100614.27;;;1.36;84.51
79376;BME280;68846;53.150;18.136;2023-11-21T01:46:35;100614.17;;;1.38;84.57
79376;BME280;68846;53.150;18.136;2023-11-21T01:49:05;100617.36;;;1.39;84.61
79376;BME280;68846;53.150;18.136;2023-11-21T01:51:34;100619.59;;;1.39;84.31
79376;BME280;68846;53.150;18.136;2023-11-21T01:54:04;100624.95;;;1.34;84.14
79376;BME280;68846;53.150;18.136;2023-11-21T01:56:32;100620.52;;;1.29;84.37
79376;BME280;68846;53.150;18.136;2023-11-21T01:59:01;100623.56;;;1.23;84.47
79376;BME280;68846;53.150;18.136;2023-11-21T02:01:29;100621.86;;;1.17;84.41
79376;BME280;68846;53.150;18.136;2023-11-21T02:03:57;100625.37;;;1.14;84.32
79376;BME280;68846;53.150;18.136;2023-11-21T02:06:25;100621.05;;;1.14;84.64
79376;BME280;68846;53.150;18.136;2023-11-21T02:08:54;100623.89;;;1.15;84.53
79376;BME280;68846;53.150;18.136;2023-11-21T02:11:22;100623.24;;;1.17;84.39
79376;BME280;68846;53.150;18.136;2023-11-21T02:13:49;100624.98;;;1.16;84.58
79376;BME280;68846;53.150;18.136;2023-11-21T02:16:17;100628.98;;;1.17;84.49
79376;BME280;68846;53.150;18.136;2023-11-21T02:18:45;100632.77;;;1.17;84.15
79376;BME280;68846;53.150;18.136;2023-11-21T02:21:16;100637.96;;;1.16;84.31
79376;BME280;68846;53.150;18.136;2023-11-21T02:23:44;100637.70;;;1.14;84.22
79376;BME280;68846;53.150;18.136;2023-11-21T02:26:14;100637.35;;;1.11;84.36
79376;BME280;68846;53.150;18.136;2023-11-21T02:28:42;100635.45;;;1.07;84.23
79376;BME280;68846;53.150;18.136;2023-11-21T02:31:10;100638.63;;;1.01;84.36
79376;BME280;68846;53.150;18.136;2023-11-21T02:33:38;100635.04;;;0.95;84.39
79376;BME280;68846;53.150;18.136;2023-11-21T02:36:07;100637.95;;;0.94;84.64
79376;BME280;68846;53.150;18.136;2023-11-21T02:38:35;100647.19;;;0.95;84.43
79376;BME280;68846;53.150;18.136;2023-11-21T02:41:03;100652.67;;;0.97;84.24
79376;BME280;68846;53.150;18.136;2023-11-21T02:43:31;100649.85;;;1.00;84.45
79376;BME280;68846;53.150;18.136;2023-11-21T02:45:59;100648.78;;;1.03;84.26
79376;BME280;68846;53.150;18.136;2023-11-21T02:48:27;100651.20;;;1.03;83.79
79376;BME280;68846;53.150;18.136;2023-11-21T02:50:55;100654.34;;;1.03;83.96
79376;BME280;68846;53.150;18.136;2023-11-21T02:53:23;100656.63;;;1.03;83.76
79376;BME280;68846;53.150;18.136;2023-11-21T02:55:52;100656.66;;;1.01;83.85
79376;BME280;68846;53.150;18.136;2023-11-21T02:58:20;100657.26;;;0.99;84.11
79376;BME280;68846;53.150;18.136;2023-11-21T03:00:48;100660.63;;;0.97;84.17
79376;BME280;68846;53.150;18.136;2023-11-21T03:03:16;100660.05;;;0.93;84.15
79376;BME280;68846;53.150;18.136;2023-11-21T03:05:44;100667.10;;;0.91;84.18
79376;BME280;68846;53.150;18.136;2023-11-21T03:08:12;100669.44;;;0.90;84.29
79376;BME280;68846;53.150;18.136;2023-11-21T03:10:40;100674.26;;;0.92;84.02
79376;BME280;68846;53.150;18.136;2023-11-21T03:13:08;100678.98;;;0.93;83.78
79376;BME280;68846;53.150;18.136;2023-11-21T03:15:36;100682.19;;;0.95;83.82
79376;BME280;68846;53.150;18.136;2023-11-21T03:18:04;100686.59;;;0.93;83.48
79376;BME280;68846;53.150;18.136;2023-11-21T03:20:32;100684.55;;;0.90;83.99
79376;BME280;68846;53.150;18.136;2023-11-21T03:23:00;100686.13;;;0.94;83.97
79376;BME280;68846;53.150;18.136;2023-11-21T03:25:29;100685.77;;;0.97;83.66
79376;BME280;68846;53.150;18.136;2023-11-21T03:27:56;100685.48;;;0.95;83.56
79376;BME280;68846;53.150;18.136;2023-11-21T03:30:26;100691.16;;;0.94;83.65
79376;BME280;68846;53.150;18.136;2023-11-21T03:32:53;100694.64;;;0.94;83.62
79376;BME280;68846;53.150;18.136;2023-11-21T03:35:21;100694.64;;;0.91;83.27
79376;BME280;68846;53.150;18.136;2023-11-21T03:37:49;100697.77;;;0.84;83.43
79376;BME280;68846;53.150;18.136;2023-11-21T03:40:17;100699.55;;;0.78;83.51
79376;BME280;68846;53.150;18.136;2023-11-21T03:42:45;100698.54;;;0.72;83.51
79376;BME280;68846;53.150;18.136;2023-11-21T03:45:13;100698.84;;;0.67;83.44
79376;BME280;68846;53.150;18.136;2023-11-21T03:47:42;100700.01;;;0.66;83.86
79376;BME280;68846;53.150;18.136;2023-11-21T03:50:10;100696.61;;;0.64;83.39
79376;BME280;68846;53.150;18.136;2023-11-21T03:52:38;100695.02;;;0.64;83.55
79376;BME280;68846;53.150;18.136;2023-11-21T03:55:06;100693.23;;;0.66;83.85
79376;BME280;68846;53.150;18.136;2023-11-21T03:57:35;100696.71;;;0.70;83.40
79376;BME280;68846;53.150;18.136;2023-11-21T04:00:03;100695.20;;;0.71;83.20
79376;BME280;68846;53.150;18.136;2023-11-21T04:02:39;100695.60;;;0.68;83.29
79376;BME280;68846;53.150;18.136;2023-11-21T04:05:08;100696.75;;;0.67;83.47
79376;BME280;68846;53.150;18.136;2023-11-21T04:07:36;100703.49;;;0.67;83.09
79376;BME280;68846;53.150;18.136;2023-11-21T04:10:07;100707.60;;;0.65;83.47
79376;BME280;68846;53.150;18.136;2023-11-21T04:12:36;100713.54;;;0.63;83.54
79376;BME280;68846;53.150;18.136;2023-11-21T04:15:04;100711.85;;;0.61;83.45
79376;BME280;68846;53.150;18.136;2023-11-21T04:17:33;100712.77;;;0.59;83.64
79376;BME280;68846;53.150;18.136;2023-11-21T04:20:00;100716.14;;;0.57;83.49
79376;BME280;68846;53.150;18.136;2023-11-21T04:22:28;100719.25;;;0.56;83.52
79376;BME280;68846;53.150;18.136;2023-11-21T04:24:56;100725.51;;;0.57;83.00
79376;BME280;68846;53.150;18.136;2023-11-21T04:27:24;100730.28;;;0.52;82.56
79376;BME280;68846;53.150;18.136;2023-11-21T04:29:52;100731.27;;;0.51;82.72
79376;BME280;68846;53.150;18.136;2023-11-21T04:32:20;100736.90;;;0.52;82.77
79376;BME280;68846;53.150;18.136;2023-11-21T04:34:48;100736.59;;;0.53;82.68
79376;BME280;68846;53.150;18.136;2023-11-21T04:37:15;100741.47;;;0.54;83.00
79376;BME280;68846;53.150;18.136;2023-11-21T04:39:43;100740.66;;;0.54;83.16
79376;BME280;68846;53.150;18.136;2023-11-21T04:42:12;100742.05;;;0.55;82.87
79376;BME280;68846;53.150;18.136;2023-11-21T04:44:40;100744.81;;;0.51;83.02
79376;BME280;68846;53.150;18.136;2023-11-21T04:47:08;100752.32;;;0.49;83.17
79376;BME280;68846;53.150;18.136;2023-11-21T04:49:36;100753.08;;;0.47;83.34
79376;BME280;68846;53.150;18.136;2023-11-21T04:52:04;100752.50;;;0.46;83.07
79376;BME280;68846;53.150;18.136;2023-11-21T04:54:32;100759.27;;;0.46;83.17
79376;BME280;68846;53.150;18.136;2023-11-21T04:57:01;100764.22;;;0.48;83.03
79376;BME280;68846;53.150;18.136;2023-11-21T04:59:29;100766.78;;;0.50;82.96
79376;BME280;68846;53.150;18.136;2023-11-21T05:01:57;100770.08;;;0.50;83.10
79376;BME280;68846;53.150;18.136;2023-11-21T05:04:25;100783.48;;;0.51;82.35
79376;BME280;68846;53.150;18.136;2023-11-21T05:06:53;100783.34;;;0.49;82.59
79376;BME280;68846;53.150;18.136;2023-11-21T05:09:21;100783.42;;;0.47;82.65
79376;BME280;68846;53.150;18.136;2023-11-21T05:11:49;100787.80;;;0.48;83.07
79376;BME280;68846;53.150;18.136;2023-11-21T05:14:17;100785.27;;;0.50;83.06
79376;BME280;68846;53.150;18.136;2023-11-21T05:16:47;100786.75;;;0.48;83.00
79376;BME280;68846;53.150;18.136;2023-11-21T05:19:15;100784.77;;;0.43;83.08
79376;BME280;68846;53.150;18.136;2023-11-21T05:21:43;100784.48;;;0.38;83.09
79376;BME280;68846;53.150;18.136;2023-11-21T05:24:11;100784.50;;;0.35;83.23
79376;BME280;68846;53.150;18.136;2023-11-21T05:26:39;100784.92;;;0.37;82.93
79376;BME280;68846;53.150;18.136;2023-11-21T05:29:07;100784.81;;;0.37;83.12
79376;BME280;68846;53.150;18.136;2023-11-21T05:31:36;100790.27;;;0.39;83.05
79376;BME280;68846;53.150;18.136;2023-11-21T05:34:05;100797.74;;;0.40;82.94
79376;BME280;68846;53.150;18.136;2023-11-21T05:36:33;100802.65;;;0.41;83.19
79376;BME280;68846;53.150;18.136;2023-11-21T05:39:01;100808.84;;;0.43;83.14
79376;BME280;68846;53.150;18.136;2023-11-21T05:41:31;100813.70;;;0.43;82.72
79376;BME280;68846;53.150;18.136;2023-11-21T05:43:58;100815.25;;;0.43;82.96
79376;BME280;68846;53.150;18.136;2023-11-21T05:46:26;100819.50;;;0.41;82.87
79376;BME280;68846;53.150;18.136;2023-11-21T05:48:54;100822.90;;;0.37;82.35
79376;BME280;68846;53.150;18.136;2023-11-21T05:51:22;100824.73;;;0.33;82.76
79376;BME280;68846;53.150;18.136;2023-11-21T05:53:51;100824.62;;;0.31;82.99
79376;BME280;68846;53.150;18.136;2023-11-21T05:56:19;100830.35;;;0.28;82.94
79376;BME280;68846;53.150;18.136;2023-11-21T05:58:47;100832.62;;;0.28;82.70
79376;BME280;68846;53.150;18.136;2023-11-21T06:01:15;100835.77;;;0.32;82.71
79376;BME280;68846;53.150;18.136;2023-11-21T06:03:42;100839.95;;;0.36;82.96
79376;BME280;68846;53.150;18.136;2023-11-21T06:06:11;100843.47;;;0.40;82.90
79376;BME280;68846;53.150;18.136;2023-11-21T06:08:39;100846.81;;;0.43;82.52
79376;BME280;68846;53.150;18.136;2023-11-21T06:11:07;100854.98;;;0.44;82.35
79376;BME280;68846;53.150;18.136;2023-11-21T06:13:35;100857.99;;;0.39;82.14
79376;BME280;68846;53.150;18.136;2023-11-21T06:16:03;100861.56;;;0.38;82.61
79376;BME280;68846;53.150;18.136;2023-11-21T06:18:32;100866.50;;;0.39;82.34
79376;BME280;68846;53.150;18.136;2023-11-21T06:21:00;100875.14;;;0.39;82.14
79376;BME280;68846;53.150;18.136;2023-11-21T06:23:28;100878.03;;;0.35;81.99
79376;BME280;68846;53.150;18.136;2023-11-21T06:25:57;100881.77;;;0.30;81.87
79376;BME280;68846;53.150;18.136;2023-11-21T06:28:24;100889.76;;;0.28;82.16
79376;BME280;68846;53.150;18.136;2023-11-21T06:30:54;100893.67;;;0.30;82.33
79376;BME280;68846;53.150;18.136;2023-11-21T06:33:22;100902.95;;;0.31;81.59
79376;BME280;68846;53.150;18.136;2023-11-21T06:35:50;100905.63;;;0.33;81.51
79376;BME280;68846;53.150;18.136;2023-11-21T06:38:18;100908.40;;;0.32;81.24
79376;BME280;68846;53.150;18.136;2023-11-21T06:40:47;100907.20;;;0.33;81.27
79376;BME280;68846;53.150;18.136;2023-11-21T06:43:15;100908.94;;;0.33;81.65
79376;BME280;68846;53.150;18.136;2023-11-21T06:45:43;100908.69;;;0.32;81.56
79376;BME280;68846;53.150;18.136;2023-11-21T06:48:11;100914.86;;;0.34;82.07
79376;BME280;68846;53.150;18.136;2023-11-21T06:50:40;100915.83;;;0.36;82.10
79376;BME280;68846;53.150;18.136;2023-11-21T06:53:08;100912.73;;;0.36;81.79
79376;BME280;68846;53.150;18.136;2023-11-21T06:55:37;100923.41;;;0.37;81.82
79376;BME280;68846;53.150;18.136;2023-11-21T06:58:05;100922.20;;;0.34;81.31
79376;BME280;68846;53.150;18.136;2023-11-21T07:00:33;100928.39;;;0.31;81.58
79376;BME280;68846;53.150;18.136;2023-11-21T07:03:01;100938.73;;;0.30;81.61
79376;BME280;68846;53.150;18.136;2023-11-21T07:05:29;100940.54;;;0.31;81.09
79376;BME280;68846;53.150;18.136;2023-11-21T07:07:57;100937.86;;;0.33;80.98
79376;BME280;68846;53.150;18.136;2023-11-21T07:10:28;100943.45;;;0.34;80.94
79376;BME280;68846;53.150;18.136;2023-11-21T07:12:56;100946.73;;;0.33;81.11
79376;BME280;68846;53.150;18.136;2023-11-21T07:15:24;100950.02;;;0.36;80.97
79376;BME280;68846;53.150;18.136;2023-11-21T07:17:53;100948.21;;;0.38;80.67
79376;BME280;68846;53.150;18.136;2023-11-21T07:20:22;100953.93;;;0.38;81.05
79376;BME280;68846;53.150;18.136;2023-11-21T07:22:51;100956.15;;;0.37;80.57
79376;BME280;68846;53.150;18.136;2023-11-21T07:25:18;100962.54;;;0.37;80.30
79376;BME280;68846;53.150;18.136;2023-11-21T07:27:46;100964.52;;;0.35;80.18
79376;BME280;68846;53.150;18.136;2023-11-21T07:30:16;100967.92;;;0.31;79.80
79376;BME280;68846;53.150;18.136;2023-11-21T07:32:45;100969.59;;;0.27;79.96
79376;BME280;68846;53.150;18.136;2023-11-21T07:35:15;100974.53;;;0.25;80.15
79376;BME280;68846;53.150;18.136;2023-11-21T07:37:43;100982.84;;;0.22;80.12
79376;BME280;68846;53.150;18.136;2023-11-21T07:40:14;100984.67;;;0.18;79.76
79376;BME280;68846;53.150;18.136;2023-11-21T07:42:44;100992.27;;;0.15;79.99
79376;BME280;68846;53.150;18.136;2023-11-21T07:45:12;100995.10;;;0.19;80.31
79376;BME280;68846;53.150;18.136;2023-11-21T07:47:40;100990.01;;;0.23;80.08
79376;BME280;68846;53.150;18.136;2023-11-21T07:50:09;100985.01;;;0.27;80.27
79376;BME280;68846;53.150;18.136;2023-11-21T07:52:37;100983.38;;;0.32;80.16
79376;BME280;68846;53.150;18.136;2023-11-21T07:55:06;100982.52;;;0.38;80.24
79376;BME280;68846;53.150;18.136;2023-11-21T07:57:35;100981.64;;;0.44;80.00
79376;BME280;68846;53.150;18.136;2023-11-21T08:00:06;100987.59;;;0.48;80.32
79376;BME280;68846;53.150;18.136;2023-11-21T08:02:40;100992.38;;;0.50;80.57
79376;BME280;68846;53.150;18.136;2023-11-21T08:05:13;100996.27;;;0.51;80.23
79376;BME280;68846;53.150;18.136;2023-11-21T08:07:43;100999.06;;;0.52;79.97
79376;BME280;68846;53.150;18.136;2023-11-21T08:10:12;101002.61;;;0.50;79.86
79376;BME280;68846;53.150;18.136;2023-11-21T08:12:40;100999.37;;;0.48;79.72
79376;BME280;68846;53.150;18.136;2023-11-21T08:15:10;101001.33;;;0.46;79.48
79376;BME280;68846;53.150;18.136;2023-11-21T08:17:38;101004.60;;;0.42;78.99
79376;BME280;68846;53.150;18.136;2023-11-21T08:20:07;100997.14;;;0.39;79.48
79376;BME280;68846;53.150;18.136;2023-11-21T08:22:36;101003.02;;;0.42;79.78
79376;BME280;68846;53.150;18.136;2023-11-21T08:25:04;100999.70;;;0.48;79.67
79376;BME280;68846;53.150;18.136;2023-11-21T08:27:32;101003.90;;;0.52;79.46
79376;BME280;68846;53.150;18.136;2023-11-21T08:30:04;101008.02;;;0.57;79.22
79376;BME280;68846;53.150;18.136;2023-11-21T08:32:33;101005.86;;;0.59;79.22
79376;BME280;68846;53.150;18.136;2023-11-21T08:35:01;101009.28;;;0.61;78.99
79376;BME280;68846;53.150;18.136;2023-11-21T08:37:29;101008.01;;;0.63;78.93
79376;BME280;68846;53.150;18.136;2023-11-21T08:39:58;101004.30;;;0.65;79.04
79376;BME280;68846;53.150;18.136;2023-11-21T08:42:29;101004.84;;;0.69;78.61
79376;BME280;68846;53.150;18.136;2023-11-21T08:44:57;101006.40;;;0.72;78.77
79376;BME280;68846;53.150;18.136;2023-11-21T08:47:28;101009.37;;;0.72;78.07
79376;BME280;68846;53.150;18.136;2023-11-21T08:49:56;101010.75;;;0.69;78.16
79376;BME280;68846;53.150;18.136;2023-11-21T08:52:26;101011.21;;;0.65;78.22
79376;BME280;68846;53.150;18.136;2023-11-21T08:54:53;101011.05;;;0.62;77.53
79376;BME280;68846;53.150;18.136;2023-11-21T08:57:23;101012.14;;;0.60;77.84
79376;BME280;68846;53.150;18.136;2023-11-21T08:59:51;101017.45;;;0.59;77.63
79376;BME280;68846;53.150;18.136;2023-11-21T09:02:23;101023.35;;;0.62;78.04
79376;BME280;68846;53.150;18.136;2023-11-21T09:04:50;101020.16;;;0.67;77.77
79376;BME280;68846;53.150;18.136;2023-11-21T09:07:20;101023.25;;;0.75;77.53
79376;BME280;68846;53.150;18.136;2023-11-21T09:09:48;101024.35;;;0.82;77.51
79376;BME280;68846;53.150;18.136;2023-11-21T09:12:19;101030.39;;;0.88;77.45
79376;BME280;68846;53.150;18.136;2023-11-21T09:14:47;101035.77;;;0.92;77.27
79376;BME280;68846;53.150;18.136;2023-11-21T09:17:14;101035.02;;;0.91;76.76
79376;BME280;68846;53.150;18.136;2023-11-21T09:19:43;101037.29;;;0.91;77.15
79376;BME280;68846;53.150;18.136;2023-11-21T09:22:19;101034.73;;;0.92;77.11
79376;BME280;68846;53.150;18.136;2023-11-21T09:24:47;101037.05;;;0.93;77.16
79376;BME280;68846;53.150;18.136;2023-11-21T09:27:16;101042.75;;;0.92;76.76
79376;BME280;68846;53.150;18.136;2023-11-21T09:29:44;101043.65;;;0.90;76.22
79376;BME280;68846;53.150;18.136;2023-11-21T09:32:14;101050.86;;;0.89;76.42
79376;BME280;68846;53.150;18.136;2023-11-21T09:34:44;101054.77;;;0.87;75.59
79376;BME280;68846;53.150;18.136;2023-11-21T09:37:11;101057.36;;;0.84;75.87
79376;BME280;68846;53.150;18.136;2023-11-21T09:39:39;101063.77;;;0.84;75.90
79376;BME280;68846;53.150;18.136;2023-11-21T09:42:35;101063.72;;;0.89;76.33
79376;BME280;68846;53.150;18.136;2023-11-21T09:47:55;101066.04;;;1.06;76.47
79376;BME280;68846;53.150;18.136;2023-11-21T09:50:26;101071.45;;;1.13;76.51
79376;BME280;68846;53.150;18.136;2023-11-21T09:55:50;101072.69;;;1.13;75.57
79376;BME280;68846;53.150;18.136;2023-11-21T09:58:19;101072.71;;;1.11;75.72
79376;BME280;68846;53.150;18.136;2023-11-21T10:00:54;101071.38;;;1.09;75.96
79376;BME280;68846;53.150;18.136;2023-11-21T10:03:24;101070.52;;;1.05;75.38
79376;BME280;68846;53.150;18.136;2023-11-21T10:05:53;101067.63;;;1.00;75.55
79376;BME280;68846;53.150;18.136;2023-11-21T10:08:23;101070.13;;;0.98;75.87
79376;BME280;68846;53.150;18.136;2023-11-21T10:10:53;101067.13;;;0.94;75.32
79376;BME280;68846;53.150;18.136;2023-11-21T10:13:22;101068.39;;;0.92;76.00
79376;BME280;68846;53.150;18.136;2023-11-21T10:15:51;101071.95;;;0.91;75.96
79376;BME280;68846;53.150;18.136;2023-11-21T10:18:20;101070.77;;;0.88;76.24
79376;BME280;68846;53.150;18.136;2023-11-21T10:20:51;101068.90;;;0.89;75.97
79376;BME280;68846;53.150;18.136;2023-11-21T10:23:22;101076.39;;;0.92;75.87
79376;BME280;68846;53.150;18.136;2023-11-21T10:25:53;101074.02;;;0.96;75.85
79376;BME280;68846;53.150;18.136;2023-11-21T10:28:22;101078.48;;;1.02;75.99
79376;BME280;68846;53.150;18.136;2023-11-21T10:30:51;101082.63;;;1.04;75.22
79376;BME280;68846;53.150;18.136;2023-11-21T10:33:27;101088.52;;;1.04;74.88
79376;BME280;68846;53.150;18.136;2023-11-21T10:35:55;101091.96;;;1.04;75.37
79376;BME280;68846;53.150;18.136;2023-11-21T10:38:22;101093.98;;;1.06;75.21
79376;BME280;68846;53.150;18.136;2023-11-21T10:40:51;101096.23;;;1.06;75.23
79376;BME280;68846;53.150;18.136;2023-11-21T10:43:20;101098.34;;;1.03;74.86
79376;BME280;68846;53.150;18.136;2023-11-21T10:45:52;101096.90;;;1.02;75.16
79376;BME280;68846;53.150;18.136;2023-11-21T10:48:20;101098.16;;;1.03;75.08
79376;BME280;68846;53.150;18.136;2023-11-21T10:50:48;101095.44;;;1.01;74.99
79376;BME280;68846;53.150;18.136;2023-11-21T10:53:16;101100.18;;;0.99;75.09
79376;BME280;68846;53.150;18.136;2023-11-21T10:55:44;101103.64;;;0.96;75.13
79376;BME280;68846;53.150;18.136;2023-11-21T10:58:14;101106.61;;;0.93;74.84
79376;BME280;68846;53.150;18.136;2023-11-21T11:00:42;101108.45;;;0.92;75.03
79376;BME280;68846;53.150;18.136;2023-11-21T11:03:12;101101.44;;;0.97;75.36
79376;BME280;68846;53.150;18.136;2023-11-21T11:05:45;101102.59;;;1.02;75.08
79376;BME280;68846;53.150;18.136;2023-11-21T11:08:20;101104.09;;;1.04;74.57
79376;BME280;68846;53.150;18.136;2023-11-21T11:10:54;101110.84;;;1.03;74.99
79376;BME280;68846;53.150;18.136;2023-11-21T11:13:21;101108.23;;;1.03;74.14
79376;BME280;68846;53.150;18.136;2023-11-21T11:15:58;101110.50;;;1.01;74.21
79376;BME280;68846;53.150;18.136;2023-11-21T11:18:29;101115.09;;;0.99;74.02
79376;BME280;68846;53.150;18.136;2023-11-21T11:21:14;101123.02;;;0.95;74.35
79376;BME280;68846;53.150;18.136;2023-11-21T11:27:06;101127.94;;;0.93;74.46
79376;BME280;68846;53.150;18.136;2023-11-21T11:33:41;101142.86;;;0.90;73.31
79376;BME280;68846;53.150;18.136;2023-11-21T11:36:28;101143.13;;;0.89;74.13
79376;BME280;68846;53.150;18.136;2023-11-21T11:38:57;101145.06;;;0.86;73.55
79376;BME280;68846;53.150;18.136;2023-11-21T11:41:27;101150.44;;;0.83;73.82
79376;BME280;68846;53.150;18.136;2023-11-21T11:43:55;101160.02;;;0.84;73.97
79376;BME280;68846;53.150;18.136;2023-11-21T11:46:42;101166.61;;;0.87;74.48
79376;BME280;68846;53.150;18.136;2023-11-21T11:49:29;101169.08;;;0.94;74.14
79376;BME280;68846;53.150;18.136;2023-11-21T11:52:36;101174.21;;;0.99;73.51
79376;BME280;68846;53.150;18.136;2023-11-21T11:55:08;101174.98;;;1.00;73.49
79376;BME280;68846;53.150;18.136;2023-11-21T11:57:42;101179.77;;;1.02;73.41
79376;BME280;68846;53.150;18.136;2023-11-21T12:00:17;101183.70;;;1.01;73.18
79376;BME280;68846;53.150;18.136;2023-11-21T12:03:07;101179.55;;;1.01;73.41
79376;BME280;68846;53.150;18.136;2023-11-21T12:05:37;101176.81;;;1.02;73.49
79376;BME280;68846;53.150;18.136;2023-11-21T12:08:11;101182.09;;;1.03;74.05
79376;BME280;68846;53.150;18.136;2023-11-21T12:10:39;101183.33;;;1.03;73.79
79376;BME280;68846;53.150;18.136;2023-11-21T12:13:10;101182.03;;;1.02;74.11
79376;BME280;68846;53.150;18.136;2023-11-21T12:15:40;101176.86;;;1.00;73.94
79376;BME280;68846;53.150;18.136;2023-11-21T12:18:09;101181.33;;;0.96;73.49
79376;BME280;68846;53.150;18.136;2023-11-21T12:20:37;101183.82;;;0.91;73.00
79376;BME280;68846;53.150;18.136;2023-11-21T12:23:08;101191.06;;;0.84;73.28
79376;BME280;68846;53.150;18.136;2023-11-21T12:25:37;101190.20;;;0.81;73.46
79376;BME280;68846;53.150;18.136;2023-11-21T12:28:07;101191.14;;;0.79;74.01
79376;BME280;68846;53.150;18.136;2023-11-21T12:30:36;101188.77;;;0.80;74.14
79376;BME280;68846;53.150;18.136;2023-11-21T12:33:05;101183.11;;;0.82;73.77
79376;BME280;68846;53.150;18.136;2023-11-21T12:35:36;101182.63;;;0.85;74.10
79376;BME280;68846;53.150;18.136;2023-11-21T12:38:04;101180.65;;;0.90;74.68
79376;BME280;68846;53.150;18.136;2023-11-21T12:40:32;101186.73;;;0.96;74.17
79376;BME280;68846;53.150;18.136;2023-11-21T12:43:01;101186.73;;;0.99;73.39
79376;BME280;68846;53.150;18.136;2023-11-21T12:45:31;101186.71;;;0.99;73.29
79376;BME280;68846;53.150;18.136;2023-11-21T12:48:05;101188.80;;;0.99;73.68
79376;BME280;68846;53.150;18.136;2023-11-21T12:50:38;101196.13;;;1.00;73.77
79376;BME280;68846;53.150;18.136;2023-11-21T12:53:11;101200.18;;;0.98;73.02
79376;BME280;68846;53.150;18.136;2023-11-21T12:55:44;101204.88;;;0.95;73.04
79376;BME280;68846;53.150;18.136;2023-11-21T12:58:17;101210.92;;;0.92;72.00
79376;BME280;68846;53.150;18.136;2023-11-21T13:00:49;101217.58;;;0.84;72.32
79376;BME280;68846;53.150;18.136;2023-11-21T13:03:19;101219.27;;;0.80;72.54
79376;BME280;68846;53.150;18.136;2023-11-21T13:05:53;101220.18;;;0.78;72.43
79376;BME280;68846;53.150;18.136;2023-11-21T13:08:24;101222.14;;;0.79;72.66
79376;BME280;68846;53.150;18.136;2023-11-21T13:10:56;101227.80;;;0.78;72.53
79376;BME280;68846;53.150;18.136;2023-11-21T13:13:25;101235.70;;;0.77;72.34
79376;BME280;68846;53.150;18.136;2023-11-21T13:15:58;101237.73;;;0.76;72.60